Time;durP1;ratioP1;P1;durP2;ratioP2;P2;SDS_P1;SDS_P2;PMS_P1;PMS_P2;Temp;Humidity;BMP_temperature;BMP_pressure;BME280_temperature;BME280_humidity;BME280_pressure;Samples;Min_cycle;Max_cycle;Signal;HPM_P1;HPM_P2
2023/07/20 00:02:07;;;;;;;2.70;2.50;;;;;;;;;;5020456;28;20440;-81
2023/07/20 00:04:34;;;;;;;3.33;3.03;;;;;;;;;;5030880;28;20450;-80
2023/07/20 00:07:01;;;;;;;3.47;3.23;;;;;;;;;;5006305;28;20632;-81
2023/07/20 00:09:28;;;;;;;3.37;2.60;;;;;;;;;;5029208;28;20572;-80
2023/07/20 00:11:54;;;;;;;3.70;3.40;;;;;;;;;;5029938;28;20451;-80
2023/07/20 00:14:22;;;;;;;4.77;3.40;;;;;;;;;;5032019;28;20446;-80
2023/07/20 00:16:55;;;;;;;3.60;3.30;;;;;;;;;;5033804;28;20476;-80
2023/07/20 00:19:22;;;;;;;5.03;3.67;;;;;;;;;;5037343;28;20522;-80
2023/07/20 00:21:49;;;;;;;3.67;3.40;;;;;;;;;;5032951;28;20439;-81
2023/07/20 00:24:15;;;;;;;3.40;3.10;;;;;;;;;;5032554;28;20457;-81
2023/07/20 00:26:43;;;;;;;3.40;3.10;;;;;;;;;;5016327;28;20914;-80
2023/07/20 00:29:09;;;;;;;4.53;3.33;;;;;;;;;;5017263;28;20467;-80
2023/07/20 00:31:37;;;;;;;3.53;3.23;;;;;;;;;;5025404;28;20479;-81
2023/07/20 00:34:05;;;;;;;2.57;2.37;;;;;;;;;;5033373;28;20430;-82
2023/07/20 00:36:31;;;;;;;2.63;2.40;;;;;;;;;;5027981;28;20443;-81
2023/07/20 00:38:58;;;;;;;3.60;2.50;;;;;;;;;;5031147;28;20446;-82
2023/07/20 00:41:24;;;;;;;2.60;2.40;;;;;;;;;;5030332;28;20451;-81
2023/07/20 00:43:50;;;;;;;2.60;2.40;;;;;;;;;;5030096;28;20440;-80
2023/07/20 00:46:17;;;;;;;4.63;2.43;;;;;;;;;;5040856;28;20519;-80
2023/07/20 00:48:43;;;;;;;3.80;2.43;;;;;;;;;;5050005;28;20938;-81
2023/07/20 00:51:12;;;;;;;2.63;2.33;;;;;;;;;;5046087;28;20446;-80
2023/07/20 00:53:38;;;;;;;2.87;2.47;;;;;;;;;;5048850;28;20451;-81
2023/07/20 00:56:05;;;;;;;2.30;2.10;;;;;;;;;;5047111;28;20464;-80
2023/07/20 00:58:31;;;;;;;2.63;1.97;;;;;;;;;;5052100;28;20442;-80
2023/07/20 01:00:57;;;;;;;2.57;2.37;;;;;;;;;;5043190;28;20443;-80
2023/07/20 01:03:25;;;;;;;2.30;2.10;;;;;;;;;;5025979;28;20471;-80
2023/07/20 01:05:55;;;;;;;2.20;2.10;;;;;;;;;;5032823;28;20544;-80
2023/07/20 01:08:25;;;;;;;2.73;1.90;;;;;;;;;;5033321;28;20534;-80
2023/07/20 01:10:53;;;;;;;3.13;2.83;;;;;;;;;;5031894;28;20451;-80
2023/07/20 01:13:21;;;;;;;2.97;2.77;;;;;;;;;;5047723;28;20438;-80
2023/07/20 01:15:50;;;;;;;2.70;2.50;;;;;;;;;;5037723;28;20435;-80
2023/07/20 01:18:16;;;;;;;2.23;2.07;;;;;;;;;;5036564;28;20468;-80
2023/07/20 01:20:44;;;;;;;2.87;2.37;;;;;;;;;;5036618;28;20485;-80
2023/07/20 01:23:29;;;;;;;2.93;2.73;;;;;;;;;;5018865;28;20427;-80
2023/07/20 01:26:22;;;;;;;2.40;2.20;;;;;;;;;;5019408;28;20439;-80
2023/07/20 01:29:04;;;;;;;2.40;2.20;;;;;;;;;;5009510;28;20465;-81
2023/07/20 01:31:33;;;;;;;2.90;1.93;;;;;;;;;;5020620;28;20471;-81
2023/07/20 01:34:01;;;;;;;2.50;2.30;;;;;;;;;;5033468;28;20439;-80
2023/07/20 01:36:28;;;;;;;2.30;2.10;;;;;;;;;;5035797;28;20472;-80
2023/07/20 01:38:55;;;;;;;2.87;2.40;;;;;;;;;;5032421;28;20475;-82
2023/07/20 01:41:21;;;;;;;2.30;2.00;;;;;;;;;;5027498;28;20526;-80
2023/07/20 01:43:48;;;;;;;2.40;2.20;;;;;;;;;;5029754;28;20439;-80
2023/07/20 01:46:14;;;;;;;2.80;2.50;;;;;;;;;;5034740;28;20444;-80
2023/07/20 01:48:44;;;;;;;5.03;2.23;;;;;;;;;;5036460;28;20807;-81
2023/07/20 01:51:11;;;;;;;2.57;2.37;;;;;;;;;;5017839;28;20894;-80
2023/07/20 01:53:38;;;;;;;2.13;2.03;;;;;;;;;;5036343;28;20428;-80
2023/07/20 01:56:04;;;;;;;1.80;1.70;;;;;;;;;;5034922;28;20450;-80
2023/07/20 01:58:31;;;;;;;1.50;1.40;;;;;;;;;;5031894;28;20466;-80
2023/07/20 02:00:57;;;;;;;2.23;2.03;;;;;;;;;;5031766;28;20471;-80
2023/07/20 02:03:26;;;;;;;2.47;2.10;;;;;;;;;;5033058;28;20452;-80
2023/07/20 02:05:54;;;;;;;2.23;2.10;;;;;;;;;;5028629;28;20521;-80
2023/07/20 02:08:20;;;;;;;2.50;2.30;;;;;;;;;;5036217;28;20443;-80
2023/07/20 02:10:49;;;;;;;1.70;1.60;;;;;;;;;;5033193;28;20471;-80
2023/07/20 02:13:16;;;;;;;2.17;1.97;;;;;;;;;;5032056;28;20453;-81
2023/07/20 02:15:42;;;;;;;4.47;2.40;;;;;;;;;;5035821;28;20942;-80
2023/07/20 02:18:09;;;;;;;3.20;2.57;;;;;;;;;;5032778;28;20452;-81
2023/07/20 02:20:35;;;;;;;2.27;2.07;;;;;;;;;;5033630;28;20503;-80
2023/07/20 02:23:03;;;;;;;2.63;2.27;;;;;;;;;;5027434;28;20443;-80
2023/07/20 02:25:29;;;;;;;2.50;2.30;;;;;;;;;;5028108;28;20419;-80
2023/07/20 02:27:57;;;;;;;2.13;2.00;;;;;;;;;;5042625;28;20483;-80
2023/07/20 02:30:23;;;;;;;2.10;1.90;;;;;;;;;;5047432;28;20482;-80
2023/07/20 02:32:50;;;;;;;2.60;2.40;;;;;;;;;;5048598;28;20430;-80
2023/07/20 02:35:16;;;;;;;2.90;2.60;;;;;;;;;;5049010;28;20916;-80
2023/07/20 02:37:43;;;;;;;2.70;2.53;;;;;;;;;;5053736;28;20456;-80
2023/07/20 02:40:12;;;;;;;3.40;2.47;;;;;;;;;;5055738;28;20430;-80
2023/07/20 02:42:39;;;;;;;2.10;1.93;;;;;;;;;;5054453;28;20457;-81
2023/07/20 02:45:06;;;;;;;3.70;2.50;;;;;;;;;;5044460;28;20469;-80
2023/07/20 02:47:34;;;;;;;2.67;2.47;;;;;;;;;;5030169;28;20527;-80
2023/07/20 02:50:00;;;;;;;3.50;3.20;;;;;;;;;;5032889;28;20570;-81
2023/07/20 02:52:26;;;;;;;3.40;3.10;;;;;;;;;;5043342;28;20519;-80
2023/07/20 02:54:53;;;;;;;2.83;2.63;;;;;;;;;;5049461;28;20462;-80
2023/07/20 02:57:21;;;;;;;2.93;2.73;;;;;;;;;;5049367;28;20449;-80
2023/07/20 02:59:47;;;;;;;2.50;2.30;;;;;;;;;;5038311;28;20486;-81
2023/07/20 03:02:13;;;;;;;3.27;2.97;;;;;;;;;;5038310;28;20447;-80
2023/07/20 03:04:41;;;;;;;3.63;3.30;;;;;;;;;;5033228;28;20438;-80
2023/07/20 03:07:07;;;;;;;5.33;2.93;;;;;;;;;;5047985;28;20819;-80
2023/07/20 03:09:34;;;;;;;3.00;2.80;;;;;;;;;;5052195;28;20993;-80
2023/07/20 03:12:00;;;;;;;3.57;3.27;;;;;;;;;;5050093;28;20439;-81
2023/07/20 03:14:28;;;;;;;3.90;3.60;;;;;;;;;;5053544;28;20455;-80
2023/07/20 03:16:56;;;;;;;5.33;4.30;;;;;;;;;;5053794;28;20997;-80
2023/07/20 03:19:22;;;;;;;3.73;2.97;;;;;;;;;;5048788;28;20450;-81
2023/07/20 03:21:49;;;;;;;5.20;3.10;;;;;;;;;;5034506;28;20470;-80
2023/07/20 03:24:15;;;;;;;3.33;2.80;;;;;;;;;;5047710;28;20447;-80
2023/07/20 03:26:42;;;;;;;5.07;3.40;;;;;;;;;;5053514;28;20457;-80
2023/07/20 03:29:08;;;;;;;3.63;3.20;;;;;;;;;;5053097;28;20513;-80
2023/07/20 03:31:36;;;;;;;4.90;3.40;;;;;;;;;;5044353;28;20468;-81
2023/07/20 03:34:02;;;;;;;3.63;3.33;;;;;;;;;;5051450;28;20464;-80
2023/07/20 03:36:29;;;;;;;3.50;3.20;;;;;;;;;;5039112;28;20496;-80
2023/07/20 03:38:55;;;;;;;3.83;3.10;;;;;;;;;;5053164;28;20457;-81
2023/07/20 03:41:22;;;;;;;5.40;3.40;;;;;;;;;;5049056;28;20974;-81
2023/07/20 03:43:48;;;;;;;3.03;2.57;;;;;;;;;;5054040;28;20434;-80
2023/07/20 03:46:15;;;;;;;4.00;3.10;;;;;;;;;;5053143;28;20506;-82
2023/07/20 03:48:44;;;;;;;3.53;3.23;;;;;;;;;;5053223;28;20450;-81
2023/07/20 03:51:10;;;;;;;3.80;3.50;;;;;;;;;;5053294;28;20482;-81
2023/07/20 03:53:37;;;;;;;3.47;3.17;;;;;;;;;;5045102;28;20489;-81
2023/07/20 03:56:03;;;;;;;6.17;3.70;;;;;;;;;;5045346;28;20474;-80
2023/07/20 03:58:30;;;;;;;5.97;3.40;;;;;;;;;;5043480;28;20455;-80
2023/07/20 04:00:56;;;;;;;3.40;2.90;;;;;;;;;;5037744;28;20496;-80
2023/07/20 04:03:24;;;;;;;6.67;3.70;;;;;;;;;;5027672;28;20833;-82
2023/07/20 04:05:54;;;;;;;7.60;3.70;;;;;;;;;;5032148;28;20547;-80
2023/07/20 04:08:20;;;;;;;4.57;3.40;;;;;;;;;;5025424;28;20484;-81
2023/07/20 04:10:46;;;;;;;2.97;2.77;;;;;;;;;;5031375;28;20450;-80
2023/07/20 04:13:13;;;;;;;3.17;2.87;;;;;;;;;;5032128;28;20449;-80
2023/07/20 04:15:39;;;;;;;6.20;2.90;;;;;;;;;;5029384;28;20814;-80
2023/07/20 04:18:05;;;;;;;3.70;3.33;;;;;;;;;;5028070;28;20439;-80
2023/07/20 04:20:32;;;;;;;4.57;3.70;;;;;;;;;;5025926;28;20420;-80
2023/07/20 04:23:00;;;;;;;4.00;3.60;;;;;;;;;;5032733;28;20452;-80
2023/07/20 04:25:26;;;;;;;5.20;4.00;;;;;;;;;;5033330;28;20542;-81
2023/07/20 04:27:53;;;;;;;5.60;3.30;;;;;;;;;;5029990;28;20808;-80
2023/07/20 04:30:22;;;;;;;3.70;3.33;;;;;;;;;;5031606;28;20505;-80
2023/07/20 04:32:48;;;;;;;3.83;3.53;;;;;;;;;;5033309;28;20452;-80
2023/07/20 04:35:18;;;;;;;3.37;3.07;;;;;;;;;;5027724;28;20465;-80
2023/07/20 04:37:46;;;;;;;3.60;3.30;;;;;;;;;;5029548;28;20460;-81
2023/07/20 04:40:14;;;;;;;5.00;3.63;;;;;;;;;;5028760;28;20458;-81
2023/07/20 04:42:42;;;;;;;5.87;4.10;;;;;;;;;;5026918;28;20477;-81
2023/07/20 04:45:09;;;;;;;6.87;4.37;;;;;;;;;;5026353;28;20454;-79
2023/07/20 04:47:35;;;;;;;5.60;3.70;;;;;;;;;;5030864;28;20477;-80
2023/07/20 04:50:01;;;;;;;5.30;3.73;;;;;;;;;;5020338;28;20420;-80
2023/07/20 04:52:29;;;;;;;5.87;4.13;;;;;;;;;;5033089;28;20451;-81
2023/07/20 04:54:55;;;;;;;3.87;3.53;;;;;;;;;;5035242;28;20882;-80
2023/07/20 04:57:24;;;;;;;5.83;4.17;;;;;;;;;;5025892;28;20469;-80
2023/07/20 04:59:51;;;;;;;4.43;4.03;;;;;;;;;;5037294;28;20426;-81
2023/07/20 05:02:17;;;;;;;5.17;3.90;;;;;;;;;;5041031;28;20458;-80
2023/07/20 05:04:45;;;;;;;7.20;4.63;;;;;;;;;;5043917;28;20430;-81
2023/07/20 05:07:12;;;;;;;5.00;4.10;;;;;;;;;;5051235;28;20450;-80
2023/07/20 05:09:38;;;;;;;5.73;5.20;;;;;;;;;;5051492;28;20422;-81
2023/07/20 05:12:07;;;;;;;4.80;4.23;;;;;;;;;;5055490;28;20490;-79
2023/07/20 05:14:35;;;;;;;4.70;4.30;;;;;;;;;;5057420;28;20819;-80
2023/07/20 05:17:01;;;;;;;5.90;3.93;;;;;;;;;;5053722;28;20477;-82
2023/07/20 05:19:27;;;;;;;4.20;3.50;;;;;;;;;;5062385;28;20491;-81
2023/07/20 05:21:54;;;;;;;5.07;4.67;;;;;;;;;;5035177;28;20451;-80
2023/07/20 05:24:20;;;;;;;5.87;3.83;;;;;;;;;;5035052;28;20419;-80
2023/07/20 05:26:46;;;;;;;7.13;3.50;;;;;;;;;;5034840;28;20472;-81
2023/07/20 05:29:13;;;;;;;4.33;3.53;;;;;;;;;;5034869;28;21018;-81
2023/07/20 05:31:43;;;;;;;5.67;3.03;;;;;;;;;;5027751;28;20506;-81
2023/07/20 05:34:09;;;;;;;5.57;3.57;;;;;;;;;;5031249;28;20443;-81
2023/07/20 05:36:36;;;;;;;7.27;3.37;;;;;;;;;;5036650;28;20469;-80
2023/07/20 05:39:02;;;;;;;4.70;3.37;;;;;;;;;;5036677;28;20472;-81
2023/07/20 05:41:29;;;;;;;3.93;2.63;;;;;;;;;;5034471;28;20476;-81
2023/07/20 05:43:56;;;;;;;3.67;3.13;;;;;;;;;;5033541;28;20427;-81
2023/07/20 05:46:24;;;;;;;5.10;3.20;;;;;;;;;;5033999;28;20451;-81
2023/07/20 05:48:51;;;;;;;3.50;2.87;;;;;;;;;;5031630;28;20458;-81
2023/07/20 05:51:18;;;;;;;3.50;3.20;;;;;;;;;;5030320;28;20479;-80
2023/07/20 05:53:45;;;;;;;6.23;2.97;;;;;;;;;;5034592;28;20893;-81
2023/07/20 05:56:11;;;;;;;7.30;3.17;;;;;;;;;;5029310;28;20454;-81
2023/07/20 05:58:38;;;;;;;3.03;2.10;;;;;;;;;;5033420;28;20447;-81
2023/07/20 06:01:05;;;;;;;2.40;2.20;;;;;;;;;;5025726;28;20460;-81
2023/07/20 06:03:33;;;;;;;5.37;2.80;;;;;;;;;;5033972;28;20839;-80
2023/07/20 06:06:02;;;;;;;4.13;1.90;;;;;;;;;;5026785;28;20515;-81
2023/07/20 06:08:30;;;;;;;2.53;1.43;;;;;;;;;;5021166;28;20478;-81
2023/07/20 06:10:56;;;;;;;2.30;2.10;;;;;;;;;;5034022;28;20455;-81
2023/07/20 06:13:23;;;;;;;2.13;1.93;;;;;;;;;;5031965;28;20456;-81
2023/07/20 06:15:49;;;;;;;2.70;2.00;;;;;;;;;;5033671;28;20476;-81
2023/07/20 06:18:15;;;;;;;5.27;2.43;;;;;;;;;;5036993;28;20836;-82
2023/07/20 06:20:42;;;;;;;5.30;2.13;;;;;;;;;;5026463;28;21506;-81
2023/07/20 06:23:10;;;;;;;5.20;2.20;;;;;;;;;;5033488;28;20419;-81
2023/07/20 06:25:36;;;;;;;3.50;1.73;;;;;;;;;;5035079;28;20498;-82
2023/07/20 06:28:04;;;;;;;2.80;2.30;;;;;;;;;;5025506;28;20822;-82
2023/07/20 06:30:30;;;;;;;2.20;1.90;;;;;;;;;;5031618;28;20444;-81
2023/07/20 06:32:56;;;;;;;3.50;2.00;;;;;;;;;;5032081;28;20462;-82
2023/07/20 06:35:23;;;;;;;2.57;2.27;;;;;;;;;;5034409;28;20457;-82
2023/07/20 06:37:49;;;;;;;1.30;1.20;;;;;;;;;;5033576;28;20993;-81
2023/07/20 06:40:17;;;;;;;2.60;1.53;;;;;;;;;;5035414;28;20430;-82
2023/07/20 06:42:44;;;;;;;3.03;1.43;;;;;;;;;;5035529;28;20439;-82
2023/07/20 06:45:10;;;;;;;2.87;1.80;;;;;;;;;;5021815;28;20423;-82
2023/07/20 06:47:38;;;;;;;2.43;1.90;;;;;;;;;;5030690;28;20459;-81
2023/07/20 06:50:06;;;;;;;2.13;1.60;;;;;;;;;;5037697;28;20632;-81
2023/07/20 06:52:32;;;;;;;3.70;1.40;;;;;;;;;;5018532;28;20481;-81
2023/07/20 06:54:58;;;;;;;5.07;1.60;;;;;;;;;;5032457;28;20437;-82
2023/07/20 06:57:27;;;;;;;3.20;1.27;;;;;;;;;;5057262;28;20820;-82
2023/07/20 06:59:54;;;;;;;2.33;1.13;;;;;;;;;;5041771;28;20444;-81
2023/07/20 07:02:22;;;;;;;2.63;1.40;;;;;;;;;;5046376;28;20467;-81
2023/07/20 07:04:48;;;;;;;1.93;1.30;;;;;;;;;;5048406;28;20459;-81
2023/07/20 07:07:14;;;;;;;1.60;1.50;;;;;;;;;;5034224;28;20451;-81
2023/07/20 07:09:41;;;;;;;1.90;1.40;;;;;;;;;;5030126;28;20601;-81
2023/07/20 07:12:08;;;;;;;2.70;1.70;;;;;;;;;;5028377;28;20447;-82
2023/07/20 07:14:36;;;;;;;1.80;1.60;;;;;;;;;;5034095;28;20444;-82
2023/07/20 07:17:03;;;;;;;2.20;1.57;;;;;;;;;;5033333;28;20473;-82
2023/07/20 07:19:29;;;;;;;2.03;1.07;;;;;;;;;;5033532;28;20456;-82
2023/07/20 07:21:55;;;;;;;3.43;1.40;;;;;;;;;;5023843;28;20468;-82
2023/07/20 07:24:22;;;;;;;4.00;1.80;;;;;;;;;;5032350;28;20452;-82
2023/07/20 07:26:48;;;;;;;5.33;2.00;;;;;;;;;;5022031;28;20998;-83
2023/07/20 07:29:14;;;;;;;2.80;1.87;;;;;;;;;;5035259;28;20468;-81
2023/07/20 07:31:42;;;;;;;4.60;1.60;;;;;;;;;;5031192;28;20472;-82
2023/07/20 07:34:09;;;;;;;7.80;2.00;;;;;;;;;;5034408;28;20441;-83
2023/07/20 07:36:35;;;;;;;7.70;3.00;;;;;;;;;;5026351;28;20465;-82
2023/07/20 07:39:02;;;;;;;5.13;1.47;;;;;;;;;;5033764;28;20491;-83
2023/07/20 07:41:28;;;;;;;5.73;2.10;;;;;;;;;;5024256;28;20472;-81
2023/07/20 07:43:54;;;;;;;4.73;1.63;;;;;;;;;;5031606;28;20445;-82
2023/07/20 07:46:21;;;;;;;2.73;1.80;;;;;;;;;;5032106;28;20523;-80
2023/07/20 07:48:49;;;;;;;5.60;1.70;;;;;;;;;;5032412;28;20508;-82
2023/07/20 07:51:15;;;;;;;3.73;2.10;;;;;;;;;;5019188;28;21040;-83
2023/07/20 07:53:42;;;;;;;3.80;2.20;;;;;;;;;;5028463;28;20827;-82
2023/07/20 07:56:08;;;;;;;7.57;1.77;;;;;;;;;;5031578;28;20480;-81
2023/07/20 07:58:35;;;;;;;4.80;2.43;;;;;;;;;;5025119;28;20549;-81
2023/07/20 08:01:01;;;;;;;5.73;2.30;;;;;;;;;;5032226;28;20499;-82
2023/07/20 08:03:28;;;;;;;4.40;2.43;;;;;;;;;;5031457;28;20453;-82
2023/07/20 08:05:58;;;;;;;3.70;2.27;;;;;;;;;;5031009;28;20464;-82
2023/07/20 08:08:25;;;;;;;3.47;2.40;;;;;;;;;;5034244;28;20476;-82
2023/07/20 08:10:53;;;;;;;3.40;2.33;;;;;;;;;;5026360;28;20460;-81
2023/07/20 08:13:20;;;;;;;2.97;2.30;;;;;;;;;;5024403;28;20503;-82
2023/07/20 08:15:50;;;;;;;3.83;2.40;;;;;;;;;;5021212;28;20460;-81
2023/07/20 08:18:16;;;;;;;2.63;1.73;;;;;;;;;;5032636;28;20833;-81
2023/07/20 08:20:44;;;;;;;5.10;2.70;;;;;;;;;;5024947;28;20469;-81
2023/07/20 08:23:12;;;;;;;2.20;1.97;;;;;;;;;;5022236;28;20448;-79
2023/07/20 08:25:41;;;;;;;3.83;1.83;;;;;;;;;;5029484;28;20457;-83
2023/07/20 08:28:07;;;;;;;3.27;1.93;;;;;;;;;;5036586;28;20468;-81
2023/07/20 08:30:40;;;;;;;3.10;2.00;;;;;;;;;;5038335;28;20455;-81
2023/07/20 08:33:07;;;;;;;5.63;2.90;;;;;;;;;;5021945;28;20987;-82
2023/07/20 08:35:33;;;;;;;3.73;2.00;;;;;;;;;;5034793;28;20460;-81
2023/07/20 08:37:59;;;;;;;3.60;2.43;;;;;;;;;;5029867;28;20476;-82
2023/07/20 08:40:29;;;;;;;4.67;2.40;;;;;;;;;;5038150;28;20448;-81
2023/07/20 08:42:57;;;;;;;3.60;2.03;;;;;;;;;;5039508;28;20440;-82
2023/07/20 08:45:26;;;;;;;7.37;1.97;;;;;;;;;;5033258;28;20444;-82
2023/07/20 08:47:53;;;;;;;3.13;1.97;;;;;;;;;;5035607;28;20468;-81
2023/07/20 08:50:24;;;;;;;2.50;2.00;;;;;;;;;;5039045;28;20943;-81
2023/07/20 08:52:52;;;;;;;3.43;1.90;;;;;;;;;;5024820;28;20485;-82
2023/07/20 08:55:18;;;;;;;2.27;2.07;;;;;;;;;;5035226;28;20452;-82
2023/07/20 08:57:47;;;;;;;8.23;1.97;;;;;;;;;;5037806;28;20480;-82
2023/07/20 09:00:14;;;;;;;2.47;1.90;;;;;;;;;;5035491;28;20446;-82
2023/07/20 09:02:41;;;;;;;3.30;2.00;;;;;;;;;;5021465;28;20465;-81
2023/07/20 09:05:08;;;;;;;3.17;2.20;;;;;;;;;;5032886;28;20449;-82
2023/07/20 09:07:36;;;;;;;7.83;2.50;;;;;;;;;;5024082;28;20576;-80
2023/07/20 09:10:05;;;;;;;4.00;2.10;;;;;;;;;;5025436;28;20441;-80
2023/07/20 09:12:32;;;;;;;5.00;3.23;;;;;;;;;;5031410;28;20473;-79
2023/07/20 09:14:59;;;;;;;3.10;2.33;;;;;;;;;;5037552;28;20440;-81
2023/07/20 09:17:26;;;;;;;4.27;2.47;;;;;;;;;;5029086;28;20898;-79
2023/07/20 09:19:53;;;;;;;6.57;2.00;;;;;;;;;;5038186;28;20436;-81
2023/07/20 09:22:19;;;;;;;3.60;2.03;;;;;;;;;;5034494;28;20472;-80
2023/07/20 09:24:45;;;;;;;3.10;2.17;;;;;;;;;;5038136;28;20455;-80
2023/07/20 09:27:12;;;;;;;3.50;2.00;;;;;;;;;;5037525;28;20476;-80
2023/07/20 09:29:48;;;;;;;3.40;1.80;;;;;;;;;;5033915;28;20449;-80
2023/07/20 09:32:19;;;;;;;3.93;2.50;;;;;;;;;;5037312;28;20483;-80
2023/07/20 09:34:45;;;;;;;4.47;2.10;;;;;;;;;;5037988;28;20456;-80
2023/07/20 09:37:11;;;;;;;2.40;1.60;;;;;;;;;;5036930;28;20475;-80
2023/07/20 09:39:43;;;;;;;3.30;2.50;;;;;;;;;;5036898;28;20445;-80
2023/07/20 09:42:09;;;;;;;3.53;2.30;;;;;;;;;;5023103;28;20473;-80
2023/07/20 09:44:35;;;;;;;2.90;1.70;;;;;;;;;;5031580;28;20460;-79
2023/07/20 09:47:04;;;;;;;7.40;2.70;;;;;;;;;;5021073;28;20469;-78
2023/07/20 09:49:32;;;;;;;3.80;2.13;;;;;;;;;;5029821;28;20957;-80
2023/07/20 09:51:58;;;;;;;2.87;2.20;;;;;;;;;;5036028;28;20480;-80
2023/07/20 09:54:25;;;;;;;5.80;1.83;;;;;;;;;;5027486;28;20545;-79
2023/07/20 09:56:52;;;;;;;11.50;2.90;;;;;;;;;;5029851;28;20476;-81
2023/07/20 09:59:18;;;;;;;3.20;1.77;;;;;;;;;;5023640;28;20496;-80
2023/07/20 10:01:47;;;;;;;3.30;2.30;;;;;;;;;;5033678;28;20479;-81
2023/07/20 10:04:16;;;;;;;8.33;2.47;;;;;;;;;;5029109;28;21015;-80
2023/07/20 10:06:47;;;;;;;2.50;2.07;;;;;;;;;;5027500;28;20484;-80
2023/07/20 10:09:15;;;;;;;3.60;2.10;;;;;;;;;;5042160;28;20470;-80
2023/07/20 10:11:44;;;;;;;4.93;2.20;;;;;;;;;;5043351;28;20467;-82
2023/07/20 10:14:13;;;;;;;2.23;1.97;;;;;;;;;;5045951;28;20484;-81
2023/07/20 10:16:47;;;;;;;3.37;2.27;;;;;;;;;;5058341;28;20542;-80
2023/07/20 10:19:17;;;;;;;4.17;2.77;;;;;;;;;;5043556;28;20566;-81
2023/07/20 10:21:48;;;;;;;3.30;2.23;;;;;;;;;;5040826;28;20856;-80
2023/07/20 10:24:15;;;;;;;4.13;1.90;;;;;;;;;;5036099;28;20857;-81
2023/07/20 10:26:42;;;;;;;2.63;2.23;;;;;;;;;;5024195;28;20472;-80
2023/07/20 10:29:08;;;;;;;2.13;1.70;;;;;;;;;;5036159;28;20476;-81
2023/07/20 10:31:35;;;;;;;4.57;2.60;;;;;;;;;;5043516;28;20526;-80
2023/07/20 10:34:02;;;;;;;2.53;1.83;;;;;;;;;;5057264;28;20563;-80
2023/07/20 10:36:29;;;;;;;4.80;1.90;;;;;;;;;;5059855;28;20486;-80
2023/07/20 10:38:58;;;;;;;3.50;1.80;;;;;;;;;;5048235;28;20465;-80
2023/07/20 10:41:29;;;;;;;5.27;2.40;;;;;;;;;;5036394;28;20514;-80
2023/07/20 10:43:59;;;;;;;4.90;1.77;;;;;;;;;;5019149;28;20440;-80
2023/07/20 10:46:37;;;;;;;5.40;2.27;;;;;;;;;;5028692;28;21029;-80
2023/07/20 10:49:08;;;;;;;1.73;1.57;;;;;;;;;;5047775;28;20924;-80
2023/07/20 10:51:39;;;;;;;2.00;1.40;;;;;;;;;;5050498;28;20475;-80
2023/07/20 10:54:10;;;;;;;3.63;1.40;;;;;;;;;;5050655;28;20558;-80
2023/07/20 10:56:36;;;;;;;8.13;1.70;;;;;;;;;;5045646;28;20469;-78
2023/07/20 10:59:20;;;;;;;3.60;1.60;;;;;;;;;;5032781;28;20488;-80
2023/07/20 11:01:49;;;;;;;1.93;1.20;;;;;;;;;;5020869;28;20477;-81
2023/07/20 11:04:16;;;;;;;2.30;1.30;;;;;;;;;;5024445;28;21013;-81
2023/07/20 11:06:43;;;;;;;3.70;1.70;;;;;;;;;;5027687;28;20510;-80
2023/07/20 11:09:14;;;;;;;7.43;2.63;;;;;;;;;;5025171;28;20474;-80
2023/07/20 11:11:41;;;;;;;1.70;1.13;;;;;;;;;;5033296;28;20860;-80
2023/07/20 11:14:08;;;;;;;10.80;1.43;;;;;;;;;;5035387;28;20480;-80
2023/07/20 11:16:36;;;;;;;2.43;1.37;;;;;;;;;;5031336;28;20563;-80
2023/07/20 11:19:03;;;;;;;3.20;1.03;;;;;;;;;;5035180;28;20487;-80
2023/07/20 11:21:30;;;;;;;3.40;1.30;;;;;;;;;;5027574;28;20476;-80
2023/07/20 11:23:57;;;;;;;1.87;1.27;;;;;;;;;;5034193;28;20457;-81
2023/07/20 11:26:25;;;;;;;2.20;1.20;;;;;;;;;;5024064;28;20587;-80
2023/07/20 11:28:52;;;;;;;6.10;1.40;;;;;;;;;;5031188;28;20469;-78
2023/07/20 11:31:19;;;;;;;4.17;1.50;;;;;;;;;;5025045;28;21002;-80
2023/07/20 11:33:47;;;;;;;2.50;0.93;;;;;;;;;;5034580;28;21010;-80
2023/07/20 11:36:13;;;;;;;1.83;0.90;;;;;;;;;;5035068;28;20560;-79
2023/07/20 11:38:42;;;;;;;2.93;1.20;;;;;;;;;;5036621;28;20483;-81
2023/07/20 11:41:08;;;;;;;1.67;1.00;;;;;;;;;;5033350;28;20472;-80
2023/07/20 11:43:37;;;;;;;6.13;1.40;;;;;;;;;;5033731;28;20442;-80
2023/07/20 11:46:05;;;;;;;6.03;1.60;;;;;;;;;;5030355;28;20472;-80
2023/07/20 11:48:33;;;;;;;2.20;1.23;;;;;;;;;;5035089;28;20562;-80
2023/07/20 11:50:59;;;;;;;3.83;1.80;;;;;;;;;;5035979;28;20492;-80
2023/07/20 11:53:26;;;;;;;2.37;1.33;;;;;;;;;;5030154;28;20513;-80
2023/07/20 11:55:53;;;;;;;3.90;1.83;;;;;;;;;;5035721;28;20468;-80
2023/07/20 11:58:21;;;;;;;4.40;1.97;;;;;;;;;;5034007;28;20468;-80
2023/07/20 12:00:49;;;;;;;1.90;1.37;;;;;;;;;;5033054;28;20456;-79
2023/07/20 12:03:16;;;;;;;3.63;2.63;;;;;;;;;;5033240;28;20444;-80
2023/07/20 12:05:42;;;;;;;3.73;1.40;;;;;;;;;;5019947;28;22106;-79
2023/07/20 12:08:08;;;;;;;1.80;1.40;;;;;;;;;;5028993;28;20551;-79
2023/07/20 12:10:35;;;;;;;2.93;1.57;;;;;;;;;;5033542;28;20503;-80
2023/07/20 12:13:04;;;;;;;3.23;1.10;;;;;;;;;;5034372;28;20489;-80
2023/07/20 12:15:31;;;;;;;3.20;1.50;;;;;;;;;;5031924;28;20441;-80
2023/07/20 12:18:00;;;;;;;3.63;1.10;;;;;;;;;;5025322;28;20535;-79
2023/07/20 12:20:27;;;;;;;4.70;1.30;;;;;;;;;;5021722;28;20497;-78
2023/07/20 12:22:54;;;;;;;7.97;1.90;;;;;;;;;;5031396;28;20823;-80
2023/07/20 12:25:21;;;;;;;1.97;1.40;;;;;;;;;;5034074;28;20841;-80
2023/07/20 12:27:48;;;;;;;4.53;1.40;;;;;;;;;;5021006;28;20477;-80
2023/07/20 12:30:15;;;;;;;1.80;1.23;;;;;;;;;;5033252;28;20532;-79
2023/07/20 12:32:41;;;;;;;3.20;1.10;;;;;;;;;;5046323;28;20467;-80
2023/07/20 12:35:11;;;;;;;2.77;1.20;;;;;;;;;;5046830;28;20464;-81
2023/07/20 12:37:37;;;;;;;1.37;0.73;;;;;;;;;;5041300;28;20464;-80
2023/07/20 12:40:04;;;;;;;2.13;1.10;;;;;;;;;;5048823;28;20459;-78
2023/07/20 12:42:31;;;;;;;1.70;0.90;;;;;;;;;;5048976;28;20847;-80
2023/07/20 12:44:58;;;;;;;1.90;1.10;;;;;;;;;;5051787;28;20956;-80
2023/07/20 12:47:24;;;;;;;3.47;1.47;;;;;;;;;;5047103;28;20468;-80
2023/07/20 12:49:51;;;;;;;3.33;1.57;;;;;;;;;;5043704;28;20443;-80
2023/07/20 12:52:18;;;;;;;2.13;1.13;;;;;;;;;;5053668;28;20475;-80
2023/07/20 12:54:45;;;;;;;1.40;1.27;;;;;;;;;;5054917;28;20488;-80
2023/07/20 12:57:11;;;;;;;3.07;1.57;;;;;;;;;;5053249;28;20999;-80
2023/07/20 12:59:37;;;;;;;5.47;1.27;;;;;;;;;;5048185;28;20460;-80
2023/07/20 13:02:04;;;;;;;3.47;1.50;;;;;;;;;;5048587;28;20484;-79
2023/07/20 13:04:30;;;;;;;3.70;1.47;;;;;;;;;;5051846;28;20444;-80
2023/07/20 13:06:58;;;;;;;2.03;1.20;;;;;;;;;;5044742;28;20467;-80
2023/07/20 13:09:26;;;;;;;4.00;1.30;;;;;;;;;;5044498;28;20522;-80
2023/07/20 13:11:52;;;;;;;2.77;1.13;;;;;;;;;;5046540;28;20475;-80
2023/07/20 13:14:19;;;;;;;2.40;1.10;;;;;;;;;;5050076;28;20476;-80
2023/07/20 13:16:45;;;;;;;2.60;1.00;;;;;;;;;;5045474;28;20986;-80
2023/07/20 13:19:12;;;;;;;2.67;1.37;;;;;;;;;;5051588;28;20843;-80
2023/07/20 13:21:38;;;;;;;3.33;1.00;;;;;;;;;;5057973;28;20470;-80
2023/07/20 13:24:06;;;;;;;4.13;1.67;;;;;;;;;;5058183;28;20439;-81
2023/07/20 13:26:34;;;;;;;4.17;1.10;;;;;;;;;;5054431;28;21024;-80
2023/07/20 13:29:01;;;;;;;2.27;1.10;;;;;;;;;;5057682;28;20482;-80
2023/07/20 13:31:27;;;;;;;3.50;1.50;;;;;;;;;;5055474;28;20475;-78
2023/07/20 13:33:54;;;;;;;1.23;1.03;;;;;;;;;;5054283;28;20483;-80
2023/07/20 13:36:24;;;;;;;1.77;1.00;;;;;;;;;;5050614;28;20467;-80
2023/07/20 13:38:50;;;;;;;3.33;1.40;;;;;;;;;;5045767;28;20478;-80
2023/07/20 13:41:17;;;;;;;2.07;1.20;;;;;;;;;;5046420;28;20478;-80
2023/07/20 13:43:45;;;;;;;2.97;1.30;;;;;;;;;;5050219;28;20453;-80
2023/07/20 13:46:13;;;;;;;2.23;1.10;;;;;;;;;;5051982;28;20504;-80
2023/07/20 13:48:40;;;;;;;2.80;1.70;;;;;;;;;;5058512;28;20517;-80
2023/07/20 13:51:06;;;;;;;2.53;1.30;;;;;;;;;;5049215;28;20468;-80
2023/07/20 13:53:33;;;;;;;2.13;1.17;;;;;;;;;;5058023;28;20865;-79
2023/07/20 13:55:59;;;;;;;2.80;1.30;;;;;;;;;;5062467;28;20467;-80
2023/07/20 13:58:25;;;;;;;2.00;1.00;;;;;;;;;;5058426;28;20482;-80
2023/07/20 14:00:55;;;;;;;1.73;1.43;;;;;;;;;;5045819;28;20982;-80
2023/07/20 14:03:21;;;;;;;0.80;0.80;;;;;;;;;;5057136;28;20451;-80
2023/07/20 14:05:50;;;;;;;4.17;1.37;;;;;;;;;;5058770;28;20462;-80
2023/07/20 14:08:16;;;;;;;3.17;1.30;;;;;;;;;;5059193;28;20464;-80
2023/07/20 14:10:42;;;;;;;4.73;1.10;;;;;;;;;;5053042;28;20456;-80
2023/07/20 14:13:08;;;;;;;2.47;1.10;;;;;;;;;;5057144;28;20455;-80
2023/07/20 14:15:37;;;;;;;3.70;1.57;;;;;;;;;;5054335;28;20455;-80
2023/07/20 14:18:05;;;;;;;2.40;1.10;;;;;;;;;;5055550;28;20973;-80
2023/07/20 14:20:32;;;;;;;3.07;1.60;;;;;;;;;;5048531;28;20542;-80
2023/07/20 14:22:58;;;;;;;1.63;1.20;;;;;;;;;;5057348;28;20478;-80
2023/07/20 14:25:24;;;;;;;2.17;1.23;;;;;;;;;;5042197;28;20445;-80
2023/07/20 14:27:51;;;;;;;3.37;1.10;;;;;;;;;;5058406;28;20463;-82
2023/07/20 14:30:17;;;;;;;2.43;1.20;;;;;;;;;;5056908;28;20466;-81
2023/07/20 14:32:44;;;;;;;2.83;1.30;;;;;;;;;;5055218;28;20464;-78
2023/07/20 14:35:12;;;;;;;3.03;1.30;;;;;;;;;;5049296;28;20495;-80
2023/07/20 14:37:38;;;;;;;1.70;1.10;;;;;;;;;;5052490;28;21016;-80
2023/07/20 14:40:06;;;;;;;4.80;1.73;;;;;;;;;;5058039;28;20455;-81
2023/07/20 14:42:33;;;;;;;4.40;1.20;;;;;;;;;;5051103;28;20491;-80
2023/07/20 14:45:00;;;;;;;2.77;1.03;;;;;;;;;;5057118;28;20579;-80